createdAt,value
2023-03-31T00:00:19.516Z,22.47
2023-03-31T00:02:49.703Z,23.33
2023-03-31T00:05:19.930Z,22.53
2023-03-31T00:07:55.983Z,22.20
2023-03-31T00:10:25.697Z,23.23
2023-03-31T00:12:55.602Z,24.43
2023-03-31T00:15:25.626Z,22.30
2023-03-31T00:17:55.669Z,23.23
2023-03-31T00:20:25.644Z,23.67
2023-03-31T00:22:58.126Z,23.50
2023-03-31T00:25:28.042Z,22.00
2023-03-31T00:27:57.750Z,22.97
2023-03-31T00:30:29.629Z,23.87
2023-03-31T00:33:03.341Z,24.33
2023-03-31T00:35:33.454Z,24.00
2023-03-31T00:38:05.074Z,23.80
2023-03-31T00:40:35.109Z,22.97
2023-03-31T00:43:05.120Z,23.73
2023-03-31T00:45:35.265Z,23.47
2023-03-31T00:48:10.725Z,22.70
2023-03-31T00:50:46.430Z,23.87
2023-03-31T00:53:20.529Z,24.83
2023-03-31T00:55:54.055Z,23.43
2023-03-31T00:58:28.669Z,24.20
2023-03-31T01:01:00.046Z,24.07
2023-03-31T01:03:31.103Z,23.60
2023-03-31T01:06:04.963Z,24.83
2023-03-31T01:08:37.759Z,24.33
2023-03-31T01:11:10.126Z,23.90
2023-03-31T01:13:42.117Z,25.43
2023-03-31T01:16:12.400Z,24.30
2023-03-31T01:18:46.938Z,24.33
2023-03-31T01:21:54.324Z,24.87
2023-03-31T01:25:02.022Z,24.67
2023-03-31T01:27:49.511Z,23.40
2023-03-31T01:30:56.037Z,24.80
2023-03-31T01:34:18.572Z,23.30
2023-03-31T01:37:12.078Z,23.90
2023-03-31T01:40:12.663Z,23.87
2023-03-31T01:42:50.564Z,22.73
2023-03-31T01:45:31.950Z,23.47
2023-03-31T01:48:09.145Z,23.60
2023-03-31T01:50:47.142Z,23.40
2023-03-31T01:53:24.222Z,22.37
2023-03-31T01:56:06.297Z,22.97
2023-03-31T01:58:42.374Z,23.83
2023-03-31T02:01:17.748Z,22.53
2023-03-31T02:03:51.684Z,22.87
2023-03-31T02:06:26.055Z,23.77
2023-03-31T02:09:00.773Z,22.73
2023-03-31T02:11:36.120Z,22.27
2023-03-31T02:14:08.032Z,20.77
2023-03-31T02:16:42.417Z,22.00
2023-03-31T02:19:14.770Z,21.97
2023-03-31T02:21:45.302Z,22.70
2023-03-31T02:24:16.954Z,21.47
2023-03-31T02:26:55.886Z,19.97
2023-03-31T02:29:26.090Z,21.87
2023-03-31T02:32:02.901Z,22.00
2023-03-31T02:34:33.306Z,20.27
2023-03-31T02:37:03.658Z,21.63
2023-03-31T02:39:37.124Z,22.03
2023-03-31T02:42:09.084Z,21.60
2023-03-31T02:44:40.637Z,20.30
2023-03-31T02:47:13.610Z,21.30
2023-03-31T02:49:51.427Z,21.13
2023-03-31T02:52:47.653Z,20.77
2023-03-31T02:55:39.480Z,21.10
2023-03-31T02:58:48.312Z,20.80
2023-03-31T03:01:51.310Z,19.97
2023-03-31T03:04:39.540Z,20.47
2023-03-31T03:07:15.805Z,20.77
2023-03-31T03:09:54.111Z,20.90
2023-03-31T03:12:30.275Z,20.67
2023-03-31T03:15:07.494Z,20.27
2023-03-31T03:17:41.336Z,19.93
2023-03-31T03:20:12.117Z,20.37
2023-03-31T03:22:42.930Z,20.23
2023-03-31T03:25:15.104Z,20.93
2023-03-31T03:27:46.251Z,20.83
2023-03-31T03:30:18.223Z,19.43
2023-03-31T03:32:48.843Z,18.77
2023-03-31T03:35:19.682Z,19.43
2023-03-31T03:37:49.588Z,19.83
2023-03-31T03:40:20.427Z,19.47
2023-03-31T03:42:50.650Z,19.83
2023-03-31T03:45:23.283Z,20.90
2023-03-31T03:47:55.495Z,19.50
2023-03-31T03:50:25.410Z,19.60
2023-03-31T03:52:55.637Z,19.17
2023-03-31T03:55:27.082Z,19.47
2023-03-31T03:57:56.884Z,19.17
2023-03-31T04:00:28.953Z,20.07
2023-03-31T04:02:58.882Z,19.87
2023-03-31T04:05:29.276Z,20.63
2023-03-31T04:07:59.604Z,20.27
2023-03-31T04:10:30.180Z,20.13
2023-03-31T04:13:00.263Z,19.97
2023-03-31T04:15:32.316Z,20.77
2023-03-31T04:18:02.484Z,20.97
2023-03-31T04:20:32.350Z,19.53
2023-03-31T04:23:03.304Z,19.67
2023-03-31T04:25:34.341Z,20.80
2023-03-31T04:28:04.145Z,20.57
2023-03-31T04:30:40.167Z,21.33
2023-03-31T04:33:10.250Z,20.70
2023-03-31T04:35:53.970Z,20.30
2023-03-31T04:38:28.482Z,21.90
2023-03-31T04:40:58.533Z,22.17
2023-03-31T04:43:28.502Z,20.63
2023-03-31T04:46:00.134Z,21.60
2023-03-31T04:48:30.211Z,20.43
2023-03-31T04:51:00.247Z,20.20
2023-03-31T04:53:30.534Z,20.77
2023-03-31T04:56:01.074Z,19.93
2023-03-31T04:58:31.495Z,20.03
2023-03-31T05:01:03.519Z,20.70
2023-03-31T05:03:33.765Z,19.77
2023-03-31T05:06:04.282Z,19.03
2023-03-31T05:08:34.690Z,19.53
2023-03-31T05:11:06.684Z,19.90
2023-03-31T05:13:36.728Z,19.97
2023-03-31T05:16:15.274Z,20.27
2023-03-31T05:18:46.973Z,19.57
2023-03-31T05:21:20.300Z,19.70
2023-03-31T05:23:51.108Z,19.13
2023-03-31T05:26:22.868Z,19.10
2023-03-31T05:28:54.645Z,19.03
2023-03-31T05:31:27.960Z,18.87
2023-03-31T05:33:57.790Z,19.20
2023-03-31T05:36:28.094Z,19.80
2023-03-31T05:38:57.974Z,17.93
2023-03-31T05:41:28.420Z,17.83
2023-03-31T05:43:58.524Z,19.27
2023-03-31T05:46:30.381Z,18.13
2023-03-31T05:49:01.716Z,18.50
2023-03-31T05:51:32.051Z,17.93
2023-03-31T05:54:01.856Z,18.37
2023-03-31T05:56:31.776Z,18.73
2023-03-31T05:59:03.268Z,18.17
2023-03-31T06:01:36.989Z,18.30
2023-03-31T06:04:07.278Z,17.97
2023-03-31T06:06:38.504Z,19.43
2023-03-31T06:09:09.024Z,18.47
2023-03-31T06:11:39.153Z,19.33
2023-03-31T06:14:09.252Z,19.13
2023-03-31T06:16:40.811Z,18.93
2023-03-31T06:19:10.818Z,18.37
2023-03-31T06:21:40.649Z,19.57
2023-03-31T06:24:12.200Z,20.40
2023-03-31T06:26:42.300Z,19.60
2023-03-31T06:29:12.230Z,19.27
2023-03-31T06:31:45.193Z,18.77
2023-03-31T06:34:15.130Z,19.17
2023-03-31T06:36:46.378Z,19.07
2023-03-31T06:39:16.390Z,18.23
2023-03-31T06:41:46.907Z,18.77
2023-03-31T06:44:25.622Z,18.03
2023-03-31T06:46:57.351Z,19.60
2023-03-31T06:49:27.324Z,19.37
2023-03-31T06:51:57.629Z,23.67
2023-03-31T06:54:27.444Z,27.93
2023-03-31T06:56:57.073Z,22.57
2023-03-31T06:59:27.190Z,18.10
2023-03-31T07:01:59.312Z,17.13
2023-03-31T07:04:29.556Z,17.13
2023-03-31T07:07:01.012Z,18.23
2023-03-31T07:09:30.910Z,17.67
2023-03-31T07:12:01.238Z,16.63
2023-03-31T07:14:31.355Z,18.30
2023-03-31T07:17:02.814Z,17.13
2023-03-31T07:19:32.732Z,17.90
2023-03-31T07:22:04.025Z,18.13
2023-03-31T07:24:34.197Z,18.20
2023-03-31T07:27:04.110Z,16.97
2023-03-31T07:29:34.343Z,17.73
2023-03-31T07:32:07.248Z,17.03
2023-03-31T07:34:38.494Z,16.63
2023-03-31T07:37:08.467Z,15.63
2023-03-31T07:39:38.696Z,17.20
2023-03-31T07:42:09.222Z,16.03
2023-03-31T07:44:39.648Z,16.10
2023-03-31T07:47:11.413Z,16.67
2023-03-31T07:49:41.634Z,16.63
2023-03-31T07:52:11.748Z,15.67
2023-03-31T07:54:41.565Z,16.70
2023-03-31T07:57:11.600Z,16.47
2023-03-31T07:59:42.013Z,17.83
2023-03-31T08:02:17.193Z,17.77
2023-03-31T08:04:53.918Z,17.90
2023-03-31T08:07:26.479Z,15.93
2023-03-31T08:09:56.199Z,15.67
2023-03-31T08:12:26.105Z,17.20
2023-03-31T08:14:56.039Z,18.70
2023-03-31T08:17:27.930Z,16.80
2023-03-31T08:20:01.682Z,17.73
2023-03-31T08:22:34.166Z,17.70
2023-03-31T08:25:04.181Z,17.23
2023-03-31T08:27:36.657Z,18.37
2023-03-31T08:30:09.628Z,16.73
2023-03-31T08:32:41.034Z,17.47
2023-03-31T08:35:11.618Z,16.60
2023-03-31T08:37:41.735Z,16.53
2023-03-31T08:40:18.722Z,15.60
2023-03-31T08:42:51.410Z,15.63
2023-03-31T08:45:25.562Z,16.00
2023-03-31T08:48:01.309Z,16.80
2023-03-31T08:50:34.061Z,15.80
2023-03-31T08:53:08.182Z,14.70
2023-03-31T08:55:48.710Z,15.13
2023-03-31T08:58:31.351Z,15.27
2023-03-31T09:01:09.067Z,16.00
2023-03-31T09:03:50.847Z,15.73
2023-03-31T09:06:26.877Z,15.60
2023-03-31T09:09:00.282Z,16.03
2023-03-31T09:11:37.136Z,16.57
2023-03-31T09:14:20.065Z,14.37
2023-03-31T09:17:06.823Z,13.47
2023-03-31T09:19:42.421Z,13.20
2023-03-31T09:22:18.287Z,12.80
2023-03-31T09:24:55.157Z,13.50
2023-03-31T09:27:31.963Z,13.50
2023-03-31T09:30:06.252Z,14.07
2023-03-31T09:32:38.472Z,14.03
2023-03-31T09:35:19.803Z,14.33
2023-03-31T09:37:51.150Z,13.50
2023-03-31T09:40:23.116Z,14.03
2023-03-31T09:42:59.170Z,13.47
2023-03-31T09:45:32.253Z,14.07
2023-03-31T09:48:08.793Z,13.17
2023-03-31T09:50:47.549Z,14.73
2023-03-31T09:53:22.191Z,14.27
2023-03-31T09:55:57.431Z,14.03
2023-03-31T09:58:27.632Z,13.70
2023-03-31T10:01:03.566Z,13.20
2023-03-31T10:03:37.720Z,13.97
2023-03-31T10:06:16.417Z,12.53
2023-03-31T10:08:52.388Z,13.00
2023-03-31T10:11:22.512Z,12.63
2023-03-31T10:13:59.384Z,13.07
2023-03-31T10:16:34.015Z,12.53
2023-03-31T10:19:22.049Z,14.73
2023-03-31T10:22:01.283Z,13.87
2023-03-31T10:24:40.831Z,13.97
2023-03-31T10:27:23.940Z,15.33
2023-03-31T10:29:57.135Z,14.50
2023-03-31T10:32:29.537Z,13.87
2023-03-31T10:35:01.162Z,13.37
2023-03-31T10:37:33.841Z,15.50
2023-03-31T10:40:07.331Z,14.70
2023-03-31T10:42:37.346Z,14.90
2023-03-31T10:45:36.585Z,14.57
2023-03-31T10:48:09.373Z,13.73
2023-03-31T10:50:39.663Z,14.20
2023-03-31T10:53:16.331Z,16.13
2023-03-31T10:56:04.983Z,17.73
2023-03-31T10:59:02.451Z,18.20
2023-03-31T11:01:43.600Z,20.43
2023-03-31T11:04:57.246Z,21.70
2023-03-31T11:07:49.041Z,22.20
2023-03-31T11:10:45.124Z,21.90
2023-03-31T11:13:21.477Z,22.23
2023-03-31T11:16:02.181Z,22.57
2023-03-31T11:18:44.843Z,22.60
2023-03-31T11:21:23.065Z,22.57
2023-03-31T11:24:01.280Z,22.13
2023-03-31T11:26:42.049Z,22.40
2023-03-31T11:29:28.025Z,22.73
2023-03-31T11:32:04.699Z,22.57
2023-03-31T11:34:57.245Z,24.60
2023-03-31T11:37:51.051Z,24.30
2023-03-31T11:40:43.748Z,25.80
2023-03-31T11:43:25.571Z,24.33
2023-03-31T11:45:59.427Z,21.77
2023-03-31T11:48:38.603Z,23.20
2023-03-31T11:51:16.193Z,25.07
2023-03-31T11:53:49.094Z,27.63
2023-03-31T11:56:20.948Z,25.13
2023-03-31T11:58:56.596Z,26.63
2023-03-31T12:01:33.567Z,25.77
2023-03-31T12:04:07.019Z,28.77
2023-03-31T12:06:42.410Z,25.93
2023-03-31T12:09:19.490Z,24.17
2023-03-31T12:11:55.251Z,25.63
2023-03-31T12:14:33.360Z,26.03
2023-03-31T12:17:07.376Z,24.73
2023-03-31T12:19:46.490Z,25.13
2023-03-31T12:22:21.010Z,26.13
2023-03-31T12:24:51.547Z,26.87
2023-03-31T12:27:25.352Z,28.23
2023-03-31T12:30:02.552Z,26.30
2023-03-31T12:32:37.369Z,28.03
2023-03-31T12:35:14.340Z,28.57
2023-03-31T12:38:12.869Z,27.13
2023-03-31T12:41:03.528Z,24.50
2023-03-31T12:43:55.063Z,25.83
2023-03-31T12:46:50.809Z,29.07
2023-03-31T12:49:55.193Z,28.20
2023-03-31T12:52:38.621Z,28.27
2023-03-31T12:55:38.246Z,27.23
2023-03-31T12:58:40.225Z,26.93
2023-03-31T13:01:16.823Z,28.33
2023-03-31T13:03:56.738Z,28.17
2023-03-31T13:07:01.861Z,27.67
2023-03-31T13:09:47.329Z,28.57
2023-03-31T13:12:21.756Z,29.10
2023-03-31T13:14:54.739Z,27.30
2023-03-31T13:17:30.624Z,28.10
2023-03-31T13:20:19.764Z,27.87
2023-03-31T13:22:50.901Z,29.90
2023-03-31T13:25:39.054Z,30.50
2023-03-31T13:28:17.261Z,30.83
2023-03-31T13:30:57.923Z,29.43
2023-03-31T13:33:34.701Z,28.57
2023-03-31T13:36:42.080Z,28.87
2023-03-31T13:39:32.999Z,28.90
2023-03-31T13:42:20.032Z,29.40
2023-03-31T13:45:09.532Z,28.70
2023-03-31T13:48:06.522Z,28.33
2023-03-31T13:51:09.734Z,30.10
2023-03-31T13:53:59.920Z,31.97
2023-03-31T13:56:51.476Z,29.73
2023-03-31T13:59:36.409Z,30.47
2023-03-31T14:02:37.553Z,29.87
2023-03-31T14:05:27.758Z,30.20
2023-03-31T14:08:02.991Z,30.80
2023-03-31T14:10:37.004Z,31.57
2023-03-31T14:13:09.252Z,30.80
2023-03-31T14:15:42.080Z,30.50
2023-03-31T14:18:17.919Z,30.47
2023-03-31T14:20:59.171Z,30.57
2023-03-31T14:23:44.857Z,30.10
2023-03-31T14:26:29.110Z,30.27
2023-03-31T14:29:13.051Z,31.77
2023-03-31T14:31:53.000Z,30.83
2023-03-31T14:34:43.333Z,30.03
2023-03-31T14:37:16.598Z,32.27
2023-03-31T14:39:49.194Z,32.40
2023-03-31T14:42:26.661Z,31.43
2023-03-31T14:44:59.032Z,31.40
2023-03-31T14:47:30.287Z,30.50
2023-03-31T14:50:07.827Z,32.20
2023-03-31T14:52:37.986Z,30.30
2023-03-31T14:55:09.052Z,33.27
2023-03-31T14:57:43.135Z,31.63
2023-03-31T15:00:17.565Z,31.30
2023-03-31T15:02:48.435Z,30.97
2023-03-31T15:05:27.897Z,32.13
2023-03-31T15:08:00.625Z,31.83
2023-03-31T15:10:37.522Z,31.77
2023-03-31T15:13:13.876Z,34.30
2023-03-31T15:15:46.337Z,31.27
2023-03-31T15:18:18.124Z,33.60
2023-03-31T15:20:48.422Z,31.67
2023-03-31T15:23:26.563Z,28.53
2023-03-31T15:26:00.529Z,30.23
2023-03-31T15:28:39.356Z,31.30
2023-03-31T15:31:10.938Z,31.50
2023-03-31T15:33:43.146Z,31.33
2023-03-31T15:36:15.599Z,31.57
2023-03-31T15:38:46.179Z,34.00
2023-03-31T15:41:20.090Z,30.63
2023-03-31T15:44:07.637Z,32.13
2023-03-31T15:47:00.880Z,32.00
2023-03-31T15:49:32.424Z,33.97
2023-03-31T15:52:05.918Z,37.00
2023-03-31T15:54:39.134Z,35.20
2023-03-31T15:57:10.990Z,32.80
2023-03-31T15:59:55.771Z,33.03
2023-03-31T16:02:29.279Z,32.30
2023-03-31T16:05:01.583Z,32.70
2023-03-31T16:07:34.078Z,35.07
2023-03-31T16:10:09.207Z,33.07
2023-03-31T16:12:41.175Z,32.03
2023-03-31T16:15:16.731Z,30.90
2023-03-31T16:17:52.868Z,32.10
2023-03-31T16:20:25.872Z,30.07
2023-03-31T16:22:59.371Z,30.43
2023-03-31T16:25:32.155Z,30.70
2023-03-31T16:28:04.836Z,31.57
2023-03-31T16:30:40.887Z,31.23
2023-03-31T16:33:13.083Z,31.83
2023-03-31T16:35:44.507Z,29.03
2023-03-31T16:38:16.779Z,31.07
2023-03-31T16:40:48.843Z,32.80
2023-03-31T16:43:20.389Z,31.53
2023-03-31T16:45:53.383Z,31.97
2023-03-31T16:48:24.869Z,31.47
2023-03-31T16:50:56.688Z,31.03
2023-03-31T16:53:28.554Z,31.33
2023-03-31T16:55:59.324Z,32.37
2023-03-31T16:58:30.615Z,32.47
2023-03-31T17:01:04.981Z,32.17
2023-03-31T17:03:35.534Z,32.80
2023-03-31T17:06:09.897Z,34.57
2023-03-31T17:08:40.850Z,34.77
2023-03-31T17:11:13.127Z,36.83
2023-03-31T17:13:44.152Z,36.10
2023-03-31T17:19:05.992Z,36.27
2023-03-31T17:21:37.855Z,38.10
2023-03-31T17:24:12.072Z,38.10
2023-03-31T17:26:42.913Z,38.63
2023-03-31T17:29:14.666Z,39.07
2023-03-31T17:31:47.373Z,38.87
2023-03-31T17:34:17.868Z,39.40
2023-03-31T17:36:47.909Z,38.80
2023-03-31T17:39:17.847Z,39.50
2023-03-31T17:41:47.920Z,39.80
2023-03-31T17:44:17.518Z,41.33
2023-03-31T17:46:49.433Z,42.07
2023-03-31T17:49:19.495Z,44.10
2023-03-31T17:51:49.529Z,45.43
2023-03-31T17:54:19.537Z,44.17
2023-03-31T17:56:53.499Z,42.97
2023-03-31T17:59:24.491Z,43.93
2023-03-31T18:01:56.188Z,44.80
2023-03-31T18:04:26.398Z,45.40
2023-03-31T18:06:56.897Z,47.50
2023-03-31T18:09:33.778Z,49.20
2023-03-31T18:12:03.794Z,50.10
2023-03-31T18:14:33.996Z,49.03
2023-03-31T18:17:06.467Z,50.77
2023-03-31T18:19:36.814Z,48.10
2023-03-31T18:22:06.824Z,49.00
2023-03-31T18:24:38.686Z,49.17
2023-03-31T18:27:09.535Z,51.23
2023-03-31T18:29:40.768Z,50.03
2023-03-31T18:32:14.254Z,50.00
2023-03-31T18:34:44.373Z,46.93
2023-03-31T18:37:14.381Z,47.10
2023-03-31T18:39:45.226Z,45.10
2023-03-31T18:42:15.546Z,46.47
2023-03-31T18:44:45.568Z,50.00
2023-03-31T18:47:17.213Z,51.37
2023-03-31T18:49:47.959Z,55.23
2023-03-31T18:52:18.174Z,52.00
2023-03-31T18:54:48.117Z,46.77
2023-03-31T18:57:18.353Z,42.73
2023-03-31T18:59:49.149Z,41.27
2023-03-31T19:02:21.256Z,43.53
2023-03-31T19:04:51.326Z,45.33
2023-03-31T19:07:21.750Z,44.80
2023-03-31T19:09:52.602Z,44.77
2023-03-31T19:12:22.912Z,42.90
2023-03-31T19:14:53.147Z,41.60
2023-03-31T19:17:24.910Z,39.83
2023-03-31T19:19:57.052Z,40.27
2023-03-31T19:22:28.315Z,38.67
2023-03-31T19:25:00.176Z,37.20
2023-03-31T19:27:30.806Z,35.30
2023-03-31T19:30:00.843Z,34.17
2023-03-31T19:32:32.734Z,33.53
2023-03-31T19:35:06.186Z,32.30
2023-03-31T19:37:36.304Z,33.00
2023-03-31T19:40:07.032Z,34.60
2023-03-31T19:42:37.360Z,32.93
2023-03-31T19:45:08.637Z,32.83
2023-03-31T19:47:40.542Z,33.53
2023-03-31T19:50:11.802Z,33.83
2023-03-31T19:52:42.943Z,32.20
2023-03-31T19:55:14.192Z,33.83
2023-03-31T19:57:44.310Z,33.47
2023-03-31T20:00:18.649Z,33.63
2023-03-31T20:02:50.637Z,32.70
2023-03-31T20:05:20.613Z,32.97
2023-03-31T20:07:51.027Z,31.90
2023-03-31T20:10:21.349Z,31.47
2023-03-31T20:12:52.301Z,31.37
2023-03-31T20:15:22.299Z,30.80
2023-03-31T20:17:54.123Z,31.43
2023-03-31T20:20:25.637Z,31.33
2023-03-31T20:22:56.034Z,34.83
2023-03-31T20:25:26.060Z,33.80
2023-03-31T20:27:56.487Z,31.37
2023-03-31T20:30:26.559Z,34.60
2023-03-31T20:32:58.528Z,32.07
2023-03-31T20:35:29.009Z,30.33
2023-03-31T20:37:59.020Z,30.20
2023-03-31T20:40:29.241Z,31.50
2023-03-31T20:42:59.146Z,29.80
2023-03-31T20:45:29.753Z,29.17
2023-03-31T20:48:01.379Z,28.57
2023-03-31T20:50:36.684Z,27.43
2023-03-31T20:53:07.411Z,26.70
2023-03-31T20:55:41.112Z,27.70
2023-03-31T20:58:11.756Z,28.03
2023-03-31T21:00:42.173Z,28.57
2023-03-31T21:03:14.252Z,27.40
2023-03-31T21:05:46.205Z,27.13
2023-03-31T21:08:16.518Z,27.23
2023-03-31T21:10:47.457Z,28.23
2023-03-31T21:13:18.183Z,27.33
2023-03-31T21:15:50.979Z,26.43
2023-03-31T21:18:22.727Z,27.63
2023-03-31T21:20:53.970Z,27.33
2023-03-31T21:23:25.532Z,29.60
2023-03-31T21:25:58.562Z,30.07
2023-03-31T21:28:30.777Z,30.70
2023-03-31T21:31:04.789Z,31.50
2023-03-31T21:33:38.916Z,29.90
2023-03-31T21:36:11.151Z,30.20
2023-03-31T21:38:41.721Z,29.27
2023-03-31T21:41:13.490Z,29.07
2023-03-31T21:43:43.685Z,28.90
2023-03-31T21:46:18.598Z,27.33
2023-03-31T21:48:51.811Z,29.20
2023-03-31T21:51:22.861Z,30.67
2023-03-31T21:53:55.872Z,28.87
2023-03-31T21:56:28.144Z,27.30
2023-03-31T21:58:58.334Z,27.20
2023-03-31T22:01:31.452Z,27.43
2023-03-31T22:04:03.384Z,25.53
2023-03-31T22:06:35.140Z,27.77
2023-03-31T22:09:05.368Z,30.03
2023-03-31T22:11:35.916Z,29.43
2023-03-31T22:14:10.014Z,30.37
2023-03-31T22:16:41.553Z,30.07
2023-03-31T22:19:14.739Z,31.73
2023-03-31T22:21:45.581Z,29.97
2023-03-31T22:24:15.702Z,31.47
2023-03-31T22:26:45.813Z,33.07
2023-03-31T22:29:17.697Z,44.87
2023-03-31T22:31:47.949Z,50.63
2023-03-31T22:34:20.357Z,46.43
2023-03-31T22:36:50.490Z,40.63
2023-03-31T22:39:20.803Z,37.87
2023-03-31T22:41:50.740Z,37.53
2023-03-31T22:44:20.944Z,36.80
2023-03-31T22:46:51.508Z,35.67
2023-03-31T22:49:23.136Z,33.97
2023-03-31T22:51:56.414Z,34.13
2023-03-31T22:54:26.338Z,33.87
2023-03-31T22:56:57.658Z,32.13
2023-03-31T22:59:28.004Z,32.37
2023-03-31T23:01:57.934Z,30.80
2023-03-31T23:04:31.626Z,31.03
2023-03-31T23:07:01.442Z,29.37
2023-03-31T23:09:31.243Z,29.83
2023-03-31T23:12:01.271Z,30.70
2023-03-31T23:14:31.178Z,29.30
2023-03-31T23:17:01.384Z,27.20
2023-03-31T23:19:34.196Z,26.47
2023-03-31T23:22:04.508Z,27.70
2023-03-31T23:24:34.737Z,32.43
2023-03-31T23:27:05.304Z,32.70
2023-03-31T23:29:36.007Z,32.83
2023-03-31T23:32:07.150Z,29.97
2023-03-31T23:34:42.075Z,24.77
2023-03-31T23:37:12.388Z,25.60
2023-03-31T23:39:42.194Z,26.53
2023-03-31T23:42:13.033Z,25.83
2023-03-31T23:44:43.157Z,27.40
2023-03-31T23:47:13.375Z,27.30
2023-03-31T23:49:44.617Z,27.00
2023-03-31T23:52:15.045Z,27.23
2023-03-31T23:54:45.175Z,28.10
2023-03-31T23:57:15.310Z,28.20
2023-03-31T23:59:45.409Z,29.27
